Time;durP1;ratioP1;P1;durP2;ratioP2;P2;SDS_P1;SDS_P2;PMS_P1;PMS_P2;Temp;Humidity;BMP_temperature;BMP_pressure;BME280_temperature;BME280_humidity;BME280_pressure;Samples;Min_cycle;Max_cycle;Signal;HPM_P1;HPM_P2
2023/09/15 00:01:09;;;;;;;;;;;;;;;;;;6153349;23;20281;-88
2023/09/15 00:03:38;;;;;;;;;;;;;;;;;;6153543;23;19908;-88
2023/09/15 00:06:05;;;;;;;;;;;;;;;;;;6153063;23;19908;-88
2023/09/15 00:08:30;;;;;;;;;;;;;;;;;;6153363;23;20025;-89
2023/09/15 00:10:56;;;;;;;;;;;;;;;;;;6153422;23;19909;-88
2023/09/15 00:13:22;;;;;;;;;;;;;;;;;;6152168;23;20277;-88
2023/09/15 00:15:50;;;;;;;;;;;;;;;;;;6153534;23;19909;-89
2023/09/15 00:18:25;;;;;;;;;;;;;;;;;;6154118;23;19904;-88
2023/09/15 00:20:51;;;;;;;;;;;;;;;;;;6153215;23;20670;-89
2023/09/15 00:23:17;;;;;;;;;;;;;;;;;;6153001;23;20021;-88
2023/09/15 00:25:45;;;;;;;;;;;;;;;;;;6152930;23;19916;-88
2023/09/15 00:28:13;;;;;;;;;;;;;;;;;;6155011;23;19932;-92
2023/09/15 00:30:39;;;;;;;;;;;;;;;;;;6156085;23;19916;-92
2023/09/15 00:33:05;;;;;;;;;;;;;;;;;;6183960;23;19912;-92
2023/09/15 00:35:31;;;;;;;;;;;;;;;;;;6159079;23;19936;-92
2023/09/15 00:37:57;;;;;;;;;;;;;;;;;;6158627;23;19904;-93
2023/09/15 00:40:24;;;;;;;;;;;;;;;;;;6157468;23;19908;-93
2023/09/15 00:43:14;;;;;;;;;;;;;;;;;;6159136;23;20545;-93
2023/09/15 00:45:36;;;;;;;;;;;;;;;;;;6181190;23;19916;-93
2023/09/15 00:48:05;;;;;;;;;;;;;;;;;;6160383;23;19920;-91
2023/09/15 00:50:34;;;;;;;;;;;;;;;;;;6157055;23;19904;-92
2023/09/15 00:52:59;;;;;;;;;;;;;;;;;;6159414;23;19915;-93
2023/09/15 00:55:26;;;;;;;;;;;;;;;;;;6158490;23;19940;-90
2023/09/15 00:57:52;;;;;;;;;;;;;;;;;;6158243;23;20378;-90
2023/09/15 01:00:18;;;;;;;;;;;;;;;;;;6158384;23;19904;-92
2023/09/15 01:02:44;;;;;;;;;;;;;;;;;;6158914;23;20270;-91
2023/09/15 01:05:10;;;;;;;;;;;;;;;;;;6156884;23;19915;-93
2023/09/15 01:07:36;;;;;;;;;;;;;;;;;;6157252;23;19924;-92
2023/09/15 01:10:03;;;;;;;;;;;;;;;;;;6158710;23;19912;-91
2023/09/15 01:12:31;;;;;;;;;;;;;;;;;;6158688;23;19912;-92
2023/09/15 01:14:56;;;;;;;;;;;;;;;;;;6158986;23;19908;-91
2023/09/15 01:17:22;;;;;;;;;;;;;;;;;;6159982;23;19958;-94
2023/09/15 01:19:53;;;;;;;;;;;;;;;;;;6185125;23;19936;-93
2023/09/15 01:22:19;;;;;;;;;;;;;;;;;;6159337;23;20023;-92
2023/09/15 01:24:45;;;;;;;;;;;;;;;;;;6159313;23;19908;-92
2023/09/15 01:27:12;;;;;;;;;;;;;;;;;;6157361;23;19963;-88
2023/09/15 01:29:44;;;;;;;;;;;;;;;;;;6153826;23;19939;-89
2023/09/15 01:32:10;;;;;;;;;;;;;;;;;;6154469;23;20338;-89
2023/09/15 01:34:36;;;;;;;;;;;;;;;;;;6153745;23;19923;-88
2023/09/15 01:37:02;;;;;;;;;;;;;;;;;;6153687;23;20517;-87
2023/09/15 01:39:30;;;;;;;;;;;;;;;;;;6153359;23;19908;-88
2023/09/15 01:41:56;;;;;;;;;;;;;;;;;;6179898;23;19912;-88
2023/09/15 01:44:22;;;;;;;;;;;;;;;;;;6153108;23;19908;-88
2023/09/15 01:46:48;;;;;;;;;;;;;;;;;;6153741;23;19915;-88
2023/09/15 01:49:14;;;;;;;;;;;;;;;;;;6154154;23;20007;-88
2023/09/15 01:51:40;;;;;;;;;;;;;;;;;;6153050;23;19908;-87
2023/09/15 01:54:06;;;;;;;;;;;;;;;;;;6153111;23;19915;-88
2023/09/15 01:56:32;;;;;;;;;;;;;;;;;;6153070;23;19912;-89
2023/09/15 01:58:58;;;;;;;;;;;;;;;;;;6153925;23;20330;-88
2023/09/15 02:01:24;;;;;;;;;;;;;;;;;;6153498;23;19915;-88
2023/09/15 02:03:50;;;;;;;;;;;;;;;;;;6179891;23;19908;-88
2023/09/15 02:06:16;;;;;;;;;;;;;;;;;;6153280;23;19956;-88
2023/09/15 02:08:42;;;;;;;;;;;;;;;;;;6152817;23;20296;-88
2023/09/15 02:11:09;;;;;;;;;;;;;;;;;;6153391;23;19916;-88
2023/09/15 02:13:36;;;;;;;;;;;;;;;;;;6152010;23;20426;-88
2023/09/15 02:16:02;;;;;;;;;;;;;;;;;;6180808;23;19912;-88
2023/09/15 02:18:28;;;;;;;;;;;;;;;;;;6152953;23;20281;-88
2023/09/15 02:20:54;;;;;;;;;;;;;;;;;;6152882;23;19909;-88
2023/09/15 02:23:20;;;;;;;;;;;;;;;;;;6152063;23;19912;-88
2023/09/15 02:25:46;;;;;;;;;;;;;;;;;;6153646;23;19909;-88
2023/09/15 02:28:13;;;;;;;;;;;;;;;;;;6153221;23;19908;-88
2023/09/15 02:30:39;;;;;;;;;;;;;;;;;;6178821;23;19908;-88
2023/09/15 02:33:04;;;;;;;;;;;;;;;;;;6179831;23;19908;-88
2023/09/15 02:35:30;;;;;;;;;;;;;;;;;;6152776;23;19908;-87
2023/09/15 02:37:56;;;;;;;;;;;;;;;;;;6153675;23;19912;-89
2023/09/15 02:40:22;;;;;;;;;;;;;;;;;;6153607;23;20729;-89
2023/09/15 02:42:48;;;;;;;;;;;;;;;;;;6153930;23;19915;-88
2023/09/15 02:45:14;;;;;;;;;;;;;;;;;;6154399;23;19904;-89
2023/09/15 02:47:40;;;;;;;;;;;;;;;;;;6153469;23;19916;-88
2023/09/15 02:50:07;;;;;;;;;;;;;;;;;;6156820;23;19920;-88
2023/09/15 02:52:33;;;;;;;;;;;;;;;;;;6179402;23;19908;-88
2023/09/15 02:54:59;;;;;;;;;;;;;;;;;;6153043;23;20330;-88
2023/09/15 02:57:25;;;;;;;;;;;;;;;;;;6179475;23;19923;-88
2023/09/15 02:59:52;;;;;;;;;;;;;;;;;;6153184;23;19908;-88
2023/09/15 03:02:18;;;;;;;;;;;;;;;;;;6152863;23;19962;-88
2023/09/15 03:04:44;;;;;;;;;;;;;;;;;;6153000;23;19987;-87
2023/09/15 03:07:10;;;;;;;;;;;;;;;;;;6153333;23;19979;-88
2023/09/15 03:09:36;;;;;;;;;;;;;;;;;;6153154;23;20011;-87
2023/09/15 03:12:03;;;;;;;;;;;;;;;;;;6179128;23;20350;-87
2023/09/15 03:14:29;;;;;;;;;;;;;;;;;;6151545;23;20331;-87
2023/09/15 03:16:55;;;;;;;;;;;;;;;;;;6152950;23;19914;-88
2023/09/15 03:19:22;;;;;;;;;;;;;;;;;;6152152;23;19908;-87
2023/09/15 03:21:47;;;;;;;;;;;;;;;;;;6153682;23;19908;-87
2023/09/15 03:24:13;;;;;;;;;;;;;;;;;;6178787;23;19905;-87
2023/09/15 03:26:40;;;;;;;;;;;;;;;;;;6152138;23;19904;-88
2023/09/15 03:29:06;;;;;;;;;;;;;;;;;;6152330;23;19908;-87
2023/09/15 03:31:32;;;;;;;;;;;;;;;;;;6153263;23;20323;-88
2023/09/15 03:33:58;;;;;;;;;;;;;;;;;;6153270;23;19908;-88
2023/09/15 03:36:26;;;;;;;;;;;;;;;;;;6152881;23;20131;-88
2023/09/15 03:38:52;;;;;;;;;;;;;;;;;;6152736;23;20227;-88
2023/09/15 03:41:17;;;;;;;;;;;;;;;;;;6152903;23;19915;-88
2023/09/15 03:43:43;;;;;;;;;;;;;;;;;;6153203;23;19915;-88
2023/09/15 03:46:12;;;;;;;;;;;;;;;;;;6153107;23;20247;-88
2023/09/15 03:48:38;;;;;;;;;;;;;;;;;;6152184;23;20274;-88
2023/09/15 03:51:04;;;;;;;;;;;;;;;;;;6156664;23;19920;-87
2023/09/15 03:53:30;;;;;;;;;;;;;;;;;;6178637;23;19908;-88
2023/09/15 03:55:56;;;;;;;;;;;;;;;;;;6152952;23;19912;-88
2023/09/15 03:58:22;;;;;;;;;;;;;;;;;;6179547;23;19979;-89
2023/09/15 04:00:48;;;;;;;;;;;;;;;;;;6153851;23;19958;-88
2023/09/15 04:03:14;;;;;;;;;;;;;;;;;;6153726;23;19909;-89
2023/09/15 04:05:40;;;;;;;;;;;;;;;;;;6179881;23;19914;-89
2023/09/15 04:08:06;;;;;;;;;;;;;;;;;;6182238;23;19912;-89
2023/09/15 04:10:32;;;;;;;;;;;;;;;;;;6182291;23;19915;-89
2023/09/15 04:12:58;;;;;;;;;;;;;;;;;;6155034;23;20307;-88
2023/09/15 04:15:24;;;;;;;;;;;;;;;;;;6155256;23;19904;-89
2023/09/15 04:17:50;;;;;;;;;;;;;;;;;;6155606;23;19998;-90
2023/09/15 04:20:16;;;;;;;;;;;;;;;;;;6154831;23;20128;-89
2023/09/15 04:22:43;;;;;;;;;;;;;;;;;;6155929;23;19904;-89
2023/09/15 04:25:11;;;;;;;;;;;;;;;;;;6181651;23;19908;-88
2023/09/15 04:27:37;;;;;;;;;;;;;;;;;;6155765;23;19908;-89
2023/09/15 04:30:03;;;;;;;;;;;;;;;;;;6155799;23;20046;-89
2023/09/15 04:32:29;;;;;;;;;;;;;;;;;;6182741;23;19941;-88
2023/09/15 04:34:55;;;;;;;;;;;;;;;;;;6155165;23;19912;-88
2023/09/15 04:37:21;;;;;;;;;;;;;;;;;;6155435;23;20326;-88
2023/09/15 04:39:49;;;;;;;;;;;;;;;;;;6155108;23;19912;-89
2023/09/15 04:42:15;;;;;;;;;;;;;;;;;;6155041;23;19911;-89
2023/09/15 04:44:41;;;;;;;;;;;;;;;;;;6156140;23;19991;-89
2023/09/15 04:47:07;;;;;;;;;;;;;;;;;;6155434;23;19915;-88
2023/09/15 04:49:33;;;;;;;;;;;;;;;;;;6157145;22;20829;-88
2023/09/15 04:51:59;;;;;;;;;;;;;;;;;;6180122;23;19966;-89
2023/09/15 04:54:24;;;;;;;;;;;;;;;;;;6154752;23;19908;-89
2023/09/15 04:56:50;;;;;;;;;;;;;;;;;;6155665;23;20416;-88
2023/09/15 04:59:16;;;;;;;;;;;;;;;;;;6153952;23;19930;-88
2023/09/15 05:01:43;;;;;;;;;;;;;;;;;;6153525;23;19905;-87
2023/09/15 05:04:10;;;;;;;;;;;;;;;;;;6153854;23;20345;-88
2023/09/15 05:06:35;;;;;;;;;;;;;;;;;;6153409;23;19908;-87
2023/09/15 05:09:11;;;;;;;;;;;;;;;;;;6153577;23;20346;-88
2023/09/15 05:11:37;;;;;;;;;;;;;;;;;;6154237;23;20232;-88
2023/09/15 05:14:03;;;;;;;;;;;;;;;;;;6151858;23;19983;-88
2023/09/15 05:16:29;;;;;;;;;;;;;;;;;;6153667;23;19923;-88
2023/09/15 05:18:55;;;;;;;;;;;;;;;;;;6152801;23;20393;-88
2023/09/15 05:21:21;;;;;;;;;;;;;;;;;;6153437;23;19915;-87
2023/09/15 05:23:47;;;;;;;;;;;;;;;;;;6153304;23;19908;-87
2023/09/15 05:26:13;;;;;;;;;;;;;;;;;;6153462;23;19908;-88
2023/09/15 05:28:39;;;;;;;;;;;;;;;;;;6154084;23;19915;-88
2023/09/15 05:31:05;;;;;;;;;;;;;;;;;;6155136;23;19936;-88
2023/09/15 05:33:30;;;;;;;;;;;;;;;;;;6153175;23;19915;-87
2023/09/15 05:35:56;;;;;;;;;;;;;;;;;;6153653;23;19916;-88
2023/09/15 05:38:22;;;;;;;;;;;;;;;;;;6153010;23;19920;-88
2023/09/15 05:40:49;;;;;;;;;;;;;;;;;;6153013;23;19916;-88
2023/09/15 05:43:15;;;;;;;;;;;;;;;;;;6153820;23;19946;-88
2023/09/15 05:45:41;;;;;;;;;;;;;;;;;;6152911;23;20304;-88
2023/09/15 05:48:12;;;;;;;;;;;;;;;;;;6153883;23;19995;-87
2023/09/15 05:50:38;;;;;;;;;;;;;;;;;;6183635;22;19924;-88
2023/09/15 05:53:04;;;;;;;;;;;;;;;;;;6152691;23;19962;-88
2023/09/15 05:55:30;;;;;;;;;;;;;;;;;;6153768;23;19909;-89
2023/09/15 05:57:56;;;;;;;;;;;;;;;;;;6153456;23;19947;-88
2023/09/15 06:00:22;;;;;;;;;;;;;;;;;;6153241;23;19986;-88
2023/09/15 06:02:47;;;;;;;;;;;;;;;;;;6178925;23;19908;-88
2023/09/15 06:05:13;;;;;;;;;;;;;;;;;;6153269;23;19908;-88
2023/09/15 06:07:39;;;;;;;;;;;;;;;;;;6154451;23;20552;-89
2023/09/15 06:10:05;;;;;;;;;;;;;;;;;;6155773;23;19905;-88
2023/09/15 06:12:31;;;;;;;;;;;;;;;;;;6181636;23;19928;-89
2023/09/15 06:14:58;;;;;;;;;;;;;;;;;;6153921;23;19908;-89
2023/09/15 06:17:24;;;;;;;;;;;;;;;;;;6181784;23;20349;-89
2023/09/15 06:19:50;;;;;;;;;;;;;;;;;;6153561;23;19904;-89
2023/09/15 06:22:16;;;;;;;;;;;;;;;;;;6153531;23;19915;-88
2023/09/15 06:24:42;;;;;;;;;;;;;;;;;;6180497;23;19951;-88
2023/09/15 06:27:08;;;;;;;;;;;;;;;;;;6180503;23;19919;-89
2023/09/15 06:29:34;;;;;;;;;;;;;;;;;;6154072;23;19912;-89
2023/09/15 06:31:59;;;;;;;;;;;;;;;;;;6154331;23;19936;-89
2023/09/15 06:34:26;;;;;;;;;;;;;;;;;;6153806;23;19947;-88
2023/09/15 06:36:51;;;;;;;;;;;;;;;;;;6153348;23;19963;-89
2023/09/15 06:39:18;;;;;;;;;;;;;;;;;;6154545;23;20310;-88
2023/09/15 06:41:45;;;;;;;;;;;;;;;;;;6154389;23;20334;-89
2023/09/15 06:44:11;;;;;;;;;;;;;;;;;;6180949;23;20323;-88
2023/09/15 06:46:37;;;;;;;;;;;;;;;;;;6153794;23;19905;-89
2023/09/15 06:49:03;;;;;;;;;;;;;;;;;;6179990;23;19908;-89
2023/09/15 06:51:29;;;;;;;;;;;;;;;;;;6155973;23;20314;-88
2023/09/15 06:54:02;;;;;;;;;;;;;;;;;;6153066;23;19912;-87
2023/09/15 06:56:28;;;;;;;;;;;;;;;;;;6152934;23;20258;-88
2023/09/15 06:58:54;;;;;;;;;;;;;;;;;;6153744;23;19904;-89
2023/09/15 07:01:20;;;;;;;;;;;;;;;;;;6153120;23;20402;-89
2023/09/15 07:03:46;;;;;;;;;;;;;;;;;;6179707;23;20027;-89
2023/09/15 07:06:21;;;;;;;;;;;;;;;;;;6153076;23;20028;-89
2023/09/15 07:08:55;;;;;;;;;;;;;;;;;;6177714;23;20282;-89
2023/09/15 07:11:24;;;;;;;;;;;;;;;;;;6153788;23;19912;-89
2023/09/15 07:13:50;;;;;;;;;;;;;;;;;;6179222;23;20508;-89
2023/09/15 07:16:16;;;;;;;;;;;;;;;;;;6153609;23;19912;-89
2023/09/15 07:18:42;;;;;;;;;;;;;;;;;;6152661;23;19908;-89
2023/09/15 07:21:08;;;;;;;;;;;;;;;;;;6153725;23;19911;-89
2023/09/15 07:23:34;;;;;;;;;;;;;;;;;;6153636;23;20477;-89
2023/09/15 07:26:00;;;;;;;;;;;;;;;;;;6180084;23;19940;-89
2023/09/15 07:28:29;;;;;;;;;;;;;;;;;;6181178;23;19943;-89
2023/09/15 07:30:55;;;;;;;;;;;;;;;;;;6154363;23;20016;-89
2023/09/15 07:33:21;;;;;;;;;;;;;;;;;;6154308;23;19908;-90
2023/09/15 07:35:47;;;;;;;;;;;;;;;;;;6179427;23;19913;-89
2023/09/15 07:38:13;;;;;;;;;;;;;;;;;;6155509;23;19908;-90
2023/09/15 07:40:38;;;;;;;;;;;;;;;;;;6154113;23;20451;-89
2023/09/15 07:43:04;;;;;;;;;;;;;;;;;;6157202;23;19911;-89
2023/09/15 07:45:30;;;;;;;;;;;;;;;;;;6156551;23;19908;-89
2023/09/15 07:48:05;;;;;;;;;;;;;;;;;;6157732;23;19918;-89
2023/09/15 07:50:33;;;;;;;;;;;;;;;;;;6158121;23;20339;-89
2023/09/15 07:52:59;;;;;;;;;;;;;;;;;;6156665;23;19936;-89
2023/09/15 07:55:30;;;;;;;;;;;;;;;;;;6154778;23;19908;-89
2023/09/15 07:58:06;;;;;;;;;;;;;;;;;;6155871;23;19947;-89
2023/09/15 08:00:31;;;;;;;;;;;;;;;;;;6155901;23;19904;-89
2023/09/15 08:02:57;;;;;;;;;;;;;;;;;;6182130;23;20350;-89
2023/09/15 08:05:23;;;;;;;;;;;;;;;;;;6155509;23;19915;-89
2023/09/15 08:07:49;;;;;;;;;;;;;;;;;;6156979;23;19908;-89
2023/09/15 08:10:17;;;;;;;;;;;;;;;;;;6156159;23;20311;-88
2023/09/15 08:12:43;;;;;;;;;;;;;;;;;;6156500;23;20306;-88
2023/09/15 08:15:10;;;;;;;;;;;;;;;;;;6182510;23;19955;-89
2023/09/15 08:17:36;;;;;;;;;;;;;;;;;;6157393;23;20304;-88
2023/09/15 08:20:02;;;;;;;;;;;;;;;;;;6156937;23;19915;-89
2023/09/15 08:22:28;;;;;;;;;;;;;;;;;;6157087;23;19905;-89
2023/09/15 08:24:54;;;;;;;;;;;;;;;;;;6183823;23;20333;-89
2023/09/15 08:27:20;;;;;;;;;;;;;;;;;;6160341;23;19911;-91
2023/09/15 08:29:49;;;;;;;;;;;;;;;;;;6163457;23;19908;-93
2023/09/15 08:32:18;;;;;;;;;;;;;;;;;;6165044;23;20394;-93
2023/09/15 08:34:44;;;;;;;;;;;;;;;;;;6162418;23;19904;-92
2023/09/15 08:37:12;;;;;;;;;;;;;;;;;;6162230;23;19918;-89
2023/09/15 08:39:39;;;;;;;;;;;;;;;;;;6182674;23;20323;-90
2023/09/15 08:42:05;;;;;;;;;;;;;;;;;;6155256;23;19951;-89
2023/09/15 08:44:31;;;;;;;;;;;;;;;;;;6155797;23;19936;-88
2023/09/15 08:46:56;;;;;;;;;;;;;;;;;;6156397;23;19919;-90
2023/09/15 08:49:22;;;;;;;;;;;;;;;;;;6155197;23;19908;-89
2023/09/15 08:51:48;;;;;;;;;;;;;;;;;;6156431;23;19920;-89
2023/09/15 08:54:15;;;;;;;;;;;;;;;;;;6181139;23;19958;-90
2023/09/15 08:56:41;;;;;;;;;;;;;;;;;;6155263;23;19995;-89
2023/09/15 08:59:07;;;;;;;;;;;;;;;;;;6156328;23;19912;-90
2023/09/15 09:01:33;;;;;;;;;;;;;;;;;;6155518;23;19905;-89
2023/09/15 09:03:58;;;;;;;;;;;;;;;;;;6182040;23;19919;-89
2023/09/15 09:06:28;;;;;;;;;;;;;;;;;;6155477;23;19904;-90
2023/09/15 09:09:00;;;;;;;;;;;;;;;;;;6155662;23;19904;-89
2023/09/15 09:11:27;;;;;;;;;;;;;;;;;;6155492;23;19944;-90
2023/09/15 09:13:54;;;;;;;;;;;;;;;;;;6154415;23;19959;-89
2023/09/15 09:16:20;;;;;;;;;;;;;;;;;;6154742;23;19912;-90
2023/09/15 09:18:46;;;;;;;;;;;;;;;;;;6155512;23;19908;-89
2023/09/15 09:21:12;;;;;;;;;;;;;;;;;;6156348;23;19935;-88
2023/09/15 09:23:38;;;;;;;;;;;;;;;;;;6155308;23;19905;-89
2023/09/15 09:26:07;;;;;;;;;;;;;;;;;;6156193;23;20242;-89
2023/09/15 09:28:34;;;;;;;;;;;;;;;;;;6155224;23;20350;-89
2023/09/15 09:31:00;;;;;;;;;;;;;;;;;;6155389;23;19943;-89
2023/09/15 09:33:26;;;;;;;;;;;;;;;;;;6157313;23;19908;-89
2023/09/15 09:35:55;;;;;;;;;;;;;;;;;;6155710;23;19987;-89
2023/09/15 09:38:25;;;;;;;;;;;;;;;;;;6156967;23;19936;-89
2023/09/15 09:40:52;;;;;;;;;;;;;;;;;;6156187;23;19904;-89
2023/09/15 09:43:21;;;;;;;;;;;;;;;;;;6155703;23;19909;-89
2023/09/15 09:45:47;;;;;;;;;;;;;;;;;;6155412;23;19908;-89
2023/09/15 09:48:16;;;;;;;;;;;;;;;;;;6182944;23;20315;-89
2023/09/15 09:50:42;;;;;;;;;;;;;;;;;;6158640;23;19951;-89
2023/09/15 09:53:08;;;;;;;;;;;;;;;;;;6156314;23;19908;-90
2023/09/15 09:55:54;;;;;;;;;;;;;;;;;;6156969;23;19904;-89
2023/09/15 09:58:20;;;;;;;;;;;;;;;;;;6156732;23;19918;-89
2023/09/15 10:00:46;;;;;;;;;;;;;;;;;;6156938;23;19928;-90
2023/09/15 10:03:12;;;;;;;;;;;;;;;;;;6156792;23;19908;-89
2023/09/15 10:05:41;;;;;;;;;;;;;;;;;;6156716;23;19904;-88
2023/09/15 10:08:09;;;;;;;;;;;;;;;;;;6183610;23;19991;-89
2023/09/15 10:10:40;;;;;;;;;;;;;;;;;;6156073;23;19908;-89
2023/09/15 10:13:19;;;;;;;;;;;;;;;;;;6181283;23;19905;-89
2023/09/15 10:15:45;;;;;;;;;;;;;;;;;;6156440;23;20282;-89
2023/09/15 10:18:12;;;;;;;;;;;;;;;;;;6157399;23;19923;-89
2023/09/15 10:20:41;;;;;;;;;;;;;;;;;;6156384;23;19908;-89
2023/09/15 10:23:09;;;;;;;;;;;;;;;;;;6157596;23;19915;-89
2023/09/15 10:25:35;;;;;;;;;;;;;;;;;;6157109;23;20458;-89
2023/09/15 10:28:01;;;;;;;;;;;;;;;;;;6156821;23;19904;-89
2023/09/15 10:30:28;;;;;;;;;;;;;;;;;;6157270;23;19912;-88
2023/09/15 10:32:54;;;;;;;;;;;;;;;;;;6156976;23;19938;-88
2023/09/15 10:35:20;;;;;;;;;;;;;;;;;;6156922;23;20278;-88
2023/09/15 10:38:07;;;;;;;;;;;;;;;;;;6155762;23;19908;-89
2023/09/15 10:40:32;;;;;;;;;;;;;;;;;;6182048;23;19908;-88
2023/09/15 10:42:58;;;;;;;;;;;;;;;;;;6158015;23;19912;-88
2023/09/15 10:45:40;;;;;;;;;;;;;;;;;;;;;
2023/09/15 10:48:07;;;;;;;;;;;;;;;;;;6184303;23;20003;-90
2023/09/15 10:50:32;;;;;;;;;;;;;;;;;;6158648;22;19940;-88
2023/09/15 10:52:58;;;;;;;;;;;;;;;;;;6159051;23;19912;-88
2023/09/15 10:55:27;;;;;;;;;;;;;;;;;;6157058;23;19932;-88
2023/09/15 10:57:56;;;;;;;;;;;;;;;;;;6156961;23;20204;-88
2023/09/15 11:00:22;;;;;;;;;;;;;;;;;;6155806;23;20013;-88
2023/09/15 11:02:48;;;;;;;;;;;;;;;;;;6181461;23;19928;-88
2023/09/15 11:05:14;;;;;;;;;;;;;;;;;;6154782;23;19979;-89
2023/09/15 11:07:39;;;;;;;;;;;;;;;;;;6155099;23;20386;-88
2023/09/15 11:10:05;;;;;;;;;;;;;;;;;;6155990;23;19911;-88
2023/09/15 11:12:32;;;;;;;;;;;;;;;;;;6155450;23;19983;-88
2023/09/15 11:15:01;;;;;;;;;;;;;;;;;;6153810;23;19908;-87
2023/09/15 11:17:30;;;;;;;;;;;;;;;;;;6155996;23;20411;-88
2023/09/15 11:19:57;;;;;;;;;;;;;;;;;;6155640;23;20403;-88
2023/09/15 11:22:26;;;;;;;;;;;;;;;;;;6154823;23;20323;-88
2023/09/15 11:24:52;;;;;;;;;;;;;;;;;;6154472;23;19915;-88
2023/09/15 11:27:18;;;;;;;;;;;;;;;;;;6155124;23;19928;-88
2023/09/15 11:29:44;;;;;;;;;;;;;;;;;;6181095;23;20222;-89
2023/09/15 11:32:10;;;;;;;;;;;;;;;;;;6155078;23;19935;-88
2023/09/15 11:34:36;;;;;;;;;;;;;;;;;;6153287;23;19944;-89
2023/09/15 11:37:08;;;;;;;;;;;;;;;;;;6154551;23;19919;-88
2023/09/15 11:39:35;;;;;;;;;;;;;;;;;;6153923;23;19915;-88
2023/09/15 11:42:02;;;;;;;;;;;;;;;;;;6153920;23;19904;-88
2023/09/15 11:44:31;;;;;;;;;;;;;;;;;;6154294;23;19919;-88
2023/09/15 11:46:57;;;;;;;;;;;;;;;;;;6154235;23;20116;-88
2023/09/15 11:49:23;;;;;;;;;;;;;;;;;;6154149;23;19931;-88
2023/09/15 11:51:49;;;;;;;;;;;;;;;;;;6156526;23;20230;-88
2023/09/15 11:54:15;;;;;;;;;;;;;;;;;;6156524;23;20413;-88
2023/09/15 11:56:40;;;;;;;;;;;;;;;;;;6154830;23;19912;-93
2023/09/15 11:59:06;;;;;;;;;;;;;;;;;;6158464;23;19928;-92
2023/09/15 12:01:36;;;;;;;;;;;;;;;;;;6158004;23;20377;-91
2023/09/15 12:04:03;;;;;;;;;;;;;;;;;;6157652;23;19915;-93
2023/09/15 12:06:29;;;;;;;;;;;;;;;;;;6157535;23;19905;-88
2023/09/15 12:08:58;;;;;;;;;;;;;;;;;;6156518;23;19904;-91
2023/09/15 12:11:24;;;;;;;;;;;;;;;;;;6157124;23;19912;-92
2023/09/15 12:13:54;;;;;;;;;;;;;;;;;;6154797;23;19975;-93
2023/09/15 12:16:20;;;;;;;;;;;;;;;;;;6182425;23;19997;-92
2023/09/15 12:18:47;;;;;;;;;;;;;;;;;;6155914;23;20362;-92
2023/09/15 12:21:13;;;;;;;;;;;;;;;;;;6157388;23;19908;-92
2023/09/15 12:23:39;;;;;;;;;;;;;;;;;;6156878;23;19939;-92
2023/09/15 12:26:05;;;;;;;;;;;;;;;;;;6155999;23;19904;-89
2023/09/15 12:28:32;;;;;;;;;;;;;;;;;;6159372;23;19945;-92
2023/09/15 12:30:58;;;;;;;;;;;;;;;;;;6157845;23;19908;-93
2023/09/15 12:33:26;;;;;;;;;;;;;;;;;;6159092;23;19908;-91
2023/09/15 12:35:53;;;;;;;;;;;;;;;;;;6185318;23;19967;-92
2023/09/15 12:38:18;;;;;;;;;;;;;;;;;;6159824;23;19912;-92
2023/09/15 12:40:44;;;;;;;;;;;;;;;;;;6158172;23;20346;-92
2023/09/15 12:43:17;;;;;;;;;;;;;;;;;;6159630;23;19904;-93
2023/09/15 12:45:43;;;;;;;;;;;;;;;;;;6158742;23;19919;-93
2023/09/15 12:48:11;;;;;;;;;;;;;;;;;;6157878;23;19908;-92
2023/09/15 12:50:37;;;;;;;;;;;;;;;;;;6157443;23;19908;-92
2023/09/15 12:53:03;;;;;;;;;;;;;;;;;;6160551;23;19923;-92
2023/09/15 12:55:29;;;;;;;;;;;;;;;;;;6184204;23;19909;-93
2023/09/15 12:57:55;;;;;;;;;;;;;;;;;;6158708;23;19912;-92
2023/09/15 13:00:21;;;;;;;;;;;;;;;;;;6184251;23;20327;-90
2023/09/15 13:02:47;;;;;;;;;;;;;;;;;;6158462;23;19987;-93
2023/09/15 13:05:13;;;;;;;;;;;;;;;;;;6157968;23;19911;-92
2023/09/15 13:07:42;;;;;;;;;;;;;;;;;;6158602;23;19904;-93
2023/09/15 13:10:08;;;;;;;;;;;;;;;;;;6158471;23;19905;-93
2023/09/15 13:12:34;;;;;;;;;;;;;;;;;;6159103;23;19908;-92
2023/09/15 13:15:00;;;;;;;;;;;;;;;;;;6157420;23;20214;-93
2023/09/15 13:17:26;;;;;;;;;;;;;;;;;;6184260;23;19916;-89
2023/09/15 13:19:52;;;;;;;;;;;;;;;;;;6155883;23;20441;-89
2023/09/15 13:22:18;;;;;;;;;;;;;;;;;;6180673;23;19908;-89
2023/09/15 13:24:44;;;;;;;;;;;;;;;;;;6155493;23;20335;-89
2023/09/15 13:27:10;;;;;;;;;;;;;;;;;;6155382;23;20060;-89
2023/09/15 13:29:37;;;;;;;;;;;;;;;;;;6155582;23;19905;-89
2023/09/15 13:32:03;;;;;;;;;;;;;;;;;;6154598;23;19912;-88
2023/09/15 13:34:29;;;;;;;;;;;;;;;;;;6154856;23;19929;-88
2023/09/15 13:36:56;;;;;;;;;;;;;;;;;;6153846;23;19908;-89
2023/09/15 13:39:23;;;;;;;;;;;;;;;;;;6154884;23;19940;-89
2023/09/15 13:41:49;;;;;;;;;;;;;;;;;;6181619;23;19908;-89
2023/09/15 13:44:15;;;;;;;;;;;;;;;;;;6154735;23;19904;-89
2023/09/15 13:46:41;;;;;;;;;;;;;;;;;;6181993;23;19912;-89
2023/09/15 13:49:07;;;;;;;;;;;;;;;;;;6181429;23;19910;-88
2023/09/15 13:51:33;;;;;;;;;;;;;;;;;;6156496;23;19970;-90
2023/09/15 13:53:59;;;;;;;;;;;;;;;;;;6154493;23;19908;-89
2023/09/15 13:56:25;;;;;;;;;;;;;;;;;;6153204;23;19993;-88
2023/09/15 13:58:58;;;;;;;;;;;;;;;;;;6154355;23;19909;-89
2023/09/15 14:01:28;;;;;;;;;;;;;;;;;;6154425;23;19908;-89
2023/09/15 14:03:57;;;;;;;;;;;;;;;;;;6153297;23;20479;-88
2023/09/15 14:06:23;;;;;;;;;;;;;;;;;;6153174;23;19909;-88
2023/09/15 14:08:49;;;;;;;;;;;;;;;;;;6153057;23;19951;-87
2023/09/15 14:11:15;;;;;;;;;;;;;;;;;;6153842;23;19916;-88
2023/09/15 14:13:41;;;;;;;;;;;;;;;;;;6150534;23;19915;-88
2023/09/15 14:16:06;;;;;;;;;;;;;;;;;;6153582;23;20319;-88
2023/09/15 14:18:32;;;;;;;;;;;;;;;;;;6152466;23;19908;-87
2023/09/15 14:20:58;;;;;;;;;;;;;;;;;;6152985;23;19904;-88
2023/09/15 14:23:24;;;;;;;;;;;;;;;;;;6153034;23;20385;-89
2023/09/15 14:25:50;;;;;;;;;;;;;;;;;;6152943;23;19935;-87
2023/09/15 14:28:17;;;;;;;;;;;;;;;;;;6154638;23;19927;-94
2023/09/15 14:30:43;;;;;;;;;;;;;;;;;;6156630;23;19944;-93
2023/09/15 14:33:09;;;;;;;;;;;;;;;;;;6155758;23;19926;-91
2023/09/15 14:35:35;;;;;;;;;;;;;;;;;;6182783;23;20237;-92
2023/09/15 14:38:00;;;;;;;;;;;;;;;;;;6154834;23;19912;-93
2023/09/15 14:40:26;;;;;;;;;;;;;;;;;;6155889;23;19970;-91
2023/09/15 14:42:52;;;;;;;;;;;;;;;;;;6156057;23;19912;-92
2023/09/15 14:45:21;;;;;;;;;;;;;;;;;;6155908;23;19905;-92
2023/09/15 14:47:49;;;;;;;;;;;;;;;;;;6155584;23;19905;-92
2023/09/15 14:50:15;;;;;;;;;;;;;;;;;;6155114;23;19969;-91
2023/09/15 14:52:44;;;;;;;;;;;;;;;;;;6158106;23;20328;-93
2023/09/15 14:55:10;;;;;;;;;;;;;;;;;;6155141;23;19911;-92
2023/09/15 14:57:36;;;;;;;;;;;;;;;;;;6156141;23;19947;-90
2023/09/15 15:00:03;;;;;;;;;;;;;;;;;;6182208;23;19908;-92
2023/09/15 15:02:28;;;;;;;;;;;;;;;;;;6155371;23;19904;-91
2023/09/15 15:04:58;;;;;;;;;;;;;;;;;;6157143;23;19939;-92
2023/09/15 15:07:23;;;;;;;;;;;;;;;;;;6155646;23;19908;-92
2023/09/15 15:09:49;;;;;;;;;;;;;;;;;;6157615;23;19908;-91
2023/09/15 15:12:18;;;;;;;;;;;;;;;;;;6156700;23;19979;-90
2023/09/15 15:14:44;;;;;;;;;;;;;;;;;;6155318;23;19986;-91
2023/09/15 15:17:10;;;;;;;;;;;;;;;;;;6156642;23;19944;-93
2023/09/15 15:19:36;;;;;;;;;;;;;;;;;;6155810;23;19911;-92
2023/09/15 15:22:02;;;;;;;;;;;;;;;;;;6155806;23;19909;-91
2023/09/15 15:24:31;;;;;;;;;;;;;;;;;;6157201;23;19943;-93
2023/09/15 15:26:57;;;;;;;;;;;;;;;;;;6156861;23;19912;-88
2023/09/15 15:29:23;;;;;;;;;;;;;;;;;;6154141;23;19904;-87
2023/09/15 15:31:53;;;;;;;;;;;;;;;;;;6154980;23;19912;-89
2023/09/15 15:34:18;;;;;;;;;;;;;;;;;;6155165;23;19911;-88
2023/09/15 15:36:45;;;;;;;;;;;;;;;;;;6156311;23;20327;-91
2023/09/15 15:39:11;;;;;;;;;;;;;;;;;;6159431;23;19908;-91
2023/09/15 15:41:37;;;;;;;;;;;;;;;;;;6160440;23;20346;-90
2023/09/15 15:44:03;;;;;;;;;;;;;;;;;;6158086;23;19912;-92
2023/09/15 15:46:29;;;;;;;;;;;;;;;;;;6159086;23;19904;-91
2023/09/15 15:48:54;;;;;;;;;;;;;;;;;;6158581;23;19920;-92
2023/09/15 15:51:20;;;;;;;;;;;;;;;;;;6161632;22;19905;-90
2023/09/15 15:53:46;;;;;;;;;;;;;;;;;;6158825;23;19962;-91
2023/09/15 15:56:12;;;;;;;;;;;;;;;;;;6158201;23;19904;-91
2023/09/15 15:58:38;;;;;;;;;;;;;;;;;;6158096;23;19951;-91
2023/09/15 16:01:04;;;;;;;;;;;;;;;;;;6158023;23;20331;-91
2023/09/15 16:03:32;;;;;;;;;;;;;;;;;;6160482;23;19912;-91
2023/09/15 16:05:58;;;;;;;;;;;;;;;;;;6160657;23;19979;-92
2023/09/15 16:08:24;;;;;;;;;;;;;;;;;;6160548;23;19915;-93
2023/09/15 16:10:50;;;;;;;;;;;;;;;;;;6160159;23;19904;-90
2023/09/15 16:13:16;;;;;;;;;;;;;;;;;;6157713;23;20346;-92
2023/09/15 16:15:42;;;;;;;;;;;;;;;;;;6159554;23;19931;-90
2023/09/15 16:18:08;;;;;;;;;;;;;;;;;;6159565;23;19912;-91
2023/09/15 16:20:37;;;;;;;;;;;;;;;;;;6157393;23;19908;-91
2023/09/15 16:23:12;;;;;;;;;;;;;;;;;;6158574;23;20131;-91
2023/09/15 16:25:38;;;;;;;;;;;;;;;;;;6159996;23;19928;-91
2023/09/15 16:28:04;;;;;;;;;;;;;;;;;;6160009;23;20330;-91
2023/09/15 16:30:30;;;;;;;;;;;;;;;;;;6161050;23;19987;-92
2023/09/15 16:32:56;;;;;;;;;;;;;;;;;;6161320;23;19941;-89
2023/09/15 16:35:22;;;;;;;;;;;;;;;;;;6161083;23;20223;-89
2023/09/15 16:37:48;;;;;;;;;;;;;;;;;;6158324;23;19912;-88
2023/09/15 16:40:17;;;;;;;;;;;;;;;;;;6155515;23;20276;-88
2023/09/15 16:42:43;;;;;;;;;;;;;;;;;;6155559;23;19908;-88